createdAt,value
2023-05-21T00:02:24.453Z,15.24
2023-05-21T00:04:52.245Z,15.72
2023-05-21T00:07:18.637Z,15.03
2023-05-21T00:09:45.028Z,15.22
2023-05-21T00:12:11.551Z,15.23
2023-05-21T00:14:38.016Z,15.20
2023-05-21T00:17:04.942Z,14.84
2023-05-21T00:19:31.409Z,14.90
2023-05-21T00:21:59.314Z,14.83
2023-05-21T00:24:25.700Z,14.95
2023-05-21T00:26:52.112Z,15.21
2023-05-21T00:29:18.564Z,14.92
2023-05-21T00:31:45.033Z,15.13
2023-05-21T00:34:13.105Z,14.61
2023-05-21T00:36:39.512Z,14.94
2023-05-21T00:39:07.253Z,14.82
2023-05-21T00:41:33.690Z,14.74
2023-05-21T00:44:00.104Z,15.45
2023-05-21T00:46:27.085Z,14.85
2023-05-21T00:48:54.402Z,15.13
2023-05-21T00:51:21.034Z,14.70
2023-05-21T00:53:50.360Z,14.82
2023-05-21T00:56:19.055Z,14.50
2023-05-21T00:58:45.593Z,14.48
2023-05-21T01:01:12.218Z,14.36
2023-05-21T01:03:39.178Z,14.45
2023-05-21T01:06:06.995Z,14.60
2023-05-21T01:08:34.336Z,14.67
2023-05-21T01:11:02.193Z,14.36
2023-05-21T01:13:31.310Z,14.92
2023-05-21T01:15:58.238Z,15.18
2023-05-21T01:18:24.734Z,15.49
2023-05-21T01:20:51.296Z,15.05
2023-05-21T01:23:20.126Z,14.86
2023-05-21T01:25:47.378Z,14.49
2023-05-21T01:28:14.046Z,14.95
2023-05-21T01:30:42.400Z,14.75
2023-05-21T01:33:14.765Z,14.61
2023-05-21T01:35:47.360Z,14.67
2023-05-21T01:38:17.957Z,14.71
2023-05-21T01:40:52.793Z,14.55
2023-05-21T01:43:20.389Z,14.62
2023-05-21T01:45:47.702Z,15.20
2023-05-21T01:48:15.196Z,14.88
2023-05-21T01:50:44.459Z,14.83
2023-05-21T01:53:10.972Z,15.01
2023-05-21T01:55:37.702Z,15.13
2023-05-21T01:58:05.667Z,14.67
2023-05-21T02:00:32.059Z,15.00
2023-05-21T02:02:58.617Z,15.17
2023-05-21T02:05:25.305Z,15.57
2023-05-21T02:07:52.179Z,15.28
2023-05-21T02:10:19.184Z,15.69
2023-05-21T02:12:45.813Z,15.41
2023-05-21T02:15:13.674Z,14.91
2023-05-21T02:17:40.106Z,14.71
2023-05-21T02:20:07.735Z,14.81
2023-05-21T02:22:34.148Z,14.44
2023-05-21T02:25:00.616Z,14.24
2023-05-21T02:27:27.021Z,14.51
2023-05-21T02:29:53.409Z,14.12
2023-05-21T02:32:21.180Z,14.24
2023-05-21T02:34:47.617Z,14.39
2023-05-21T02:37:14.056Z,14.24
2023-05-21T02:39:40.435Z,13.92
2023-05-21T02:42:06.993Z,14.20
2023-05-21T02:44:33.506Z,13.80
2023-05-21T02:46:59.877Z,13.80
2023-05-21T02:49:27.806Z,13.81
2023-05-21T02:51:54.202Z,14.28
2023-05-21T02:54:21.005Z,14.17
2023-05-21T02:56:47.588Z,14.25
2023-05-21T02:59:13.989Z,14.02
2023-05-21T03:01:40.495Z,13.94
2023-05-21T03:04:06.936Z,14.00
2023-05-21T03:06:34.671Z,14.60
2023-05-21T03:09:01.041Z,14.09
2023-05-21T03:11:27.480Z,14.15
2023-05-21T03:13:53.923Z,13.87
2023-05-21T03:16:20.404Z,14.10
2023-05-21T03:18:46.831Z,14.23
2023-05-21T03:21:13.483Z,14.75
2023-05-21T03:23:41.288Z,14.60
2023-05-21T03:26:07.770Z,14.17
2023-05-21T03:28:35.184Z,13.70
2023-05-21T03:31:01.886Z,13.48
2023-05-21T03:33:28.327Z,13.83
2023-05-21T03:35:54.738Z,13.96
2023-05-21T03:38:21.273Z,13.71
2023-05-21T03:40:49.010Z,13.74
2023-05-21T03:43:15.429Z,13.11
2023-05-21T03:45:44.158Z,13.56
2023-05-21T03:48:11.131Z,13.67
2023-05-21T03:50:37.572Z,13.68
2023-05-21T03:53:03.995Z,13.72
2023-05-21T03:55:30.480Z,13.49
2023-05-21T03:57:58.209Z,14.10
2023-05-21T04:00:25.459Z,13.80
2023-05-21T04:02:51.983Z,13.97
2023-05-21T04:05:18.638Z,13.67
2023-05-21T04:07:45.090Z,13.67
2023-05-21T04:10:11.604Z,13.84
2023-05-21T04:12:38.022Z,13.45
2023-05-21T04:15:07.665Z,13.69
2023-05-21T04:17:34.131Z,13.81
2023-05-21T04:20:00.694Z,13.63
2023-05-21T04:22:27.143Z,14.00
2023-05-21T04:24:53.597Z,14.01
2023-05-21T04:27:21.009Z,13.93
2023-05-21T04:29:48.992Z,13.49
2023-05-21T04:32:18.421Z,13.93
2023-05-21T04:34:44.829Z,14.14
2023-05-21T04:37:11.292Z,14.41
2023-05-21T04:39:37.751Z,14.56
2023-05-21T04:42:04.423Z,15.29
2023-05-21T04:44:30.853Z,15.09
2023-05-21T04:46:57.351Z,14.78
2023-05-21T04:49:25.183Z,14.72
2023-05-21T04:51:51.579Z,15.03
2023-05-21T04:54:18.074Z,14.98
2023-05-21T04:56:44.509Z,14.31
2023-05-21T04:59:10.930Z,14.92
2023-05-21T05:01:37.414Z,14.69
2023-05-21T05:04:04.360Z,14.38
2023-05-21T05:06:32.125Z,14.71
2023-05-21T05:08:58.707Z,14.48
2023-05-21T05:11:25.146Z,14.20
2023-05-21T05:13:51.949Z,14.30
2023-05-21T05:16:18.474Z,14.76
2023-05-21T05:18:45.031Z,14.45
2023-05-21T05:21:11.470Z,14.36
2023-05-21T05:23:39.253Z,14.90
2023-05-21T05:26:05.665Z,14.58
2023-05-21T05:28:32.100Z,14.33
2023-05-21T05:30:58.566Z,15.15
2023-05-21T05:33:25.100Z,15.50
2023-05-21T05:35:51.534Z,15.10
2023-05-21T05:38:17.994Z,15.34
2023-05-21T05:40:45.811Z,15.60
2023-05-21T05:43:12.281Z,15.15
2023-05-21T05:45:38.990Z,15.17
2023-05-21T05:48:06.334Z,15.51
2023-05-21T05:50:32.806Z,16.28
2023-05-21T05:52:59.284Z,15.63
2023-05-21T05:55:25.704Z,15.00
2023-05-21T05:57:53.474Z,15.37
2023-05-21T06:00:20.060Z,15.16
2023-05-21T06:02:46.601Z,15.37
2023-05-21T06:05:13.101Z,15.45
2023-05-21T06:07:39.957Z,15.84
2023-05-21T06:10:07.175Z,15.44
2023-05-21T06:12:33.859Z,15.28
2023-05-21T06:15:01.916Z,15.57
2023-05-21T06:17:28.320Z,15.63
2023-05-21T06:19:54.860Z,15.89
2023-05-21T06:22:22.015Z,15.78
2023-05-21T06:24:50.512Z,15.34
2023-05-21T06:27:16.950Z,15.30
2023-05-21T06:29:43.433Z,15.99
2023-05-21T06:32:11.195Z,15.86
2023-05-21T06:34:37.668Z,15.94
2023-05-21T06:37:04.317Z,15.85
2023-05-21T06:39:30.776Z,15.80
2023-05-21T06:41:57.214Z,16.12
2023-05-21T06:44:23.847Z,15.54
2023-05-21T06:46:50.327Z,15.84
2023-05-21T06:49:18.156Z,15.65
2023-05-21T06:51:44.624Z,15.87
2023-05-21T06:54:11.035Z,16.62
2023-05-21T06:56:37.440Z,16.31
2023-05-21T06:59:03.906Z,16.56
2023-05-21T07:01:30.497Z,16.63
2023-05-21T07:03:57.018Z,16.70
2023-05-21T07:06:25.203Z,16.25
2023-05-21T07:08:51.620Z,16.37
2023-05-21T07:11:18.093Z,16.43
2023-05-21T07:13:44.621Z,16.23
2023-05-21T07:16:11.101Z,16.79
2023-05-21T07:18:37.643Z,17.05
2023-05-21T07:21:04.261Z,16.87
2023-05-21T07:23:32.074Z,16.49
2023-05-21T07:25:58.475Z,16.35
2023-05-21T07:28:24.966Z,17.07
2023-05-21T07:30:51.466Z,17.11
2023-05-21T07:33:17.978Z,17.24
2023-05-21T07:35:44.391Z,17.60
2023-05-21T07:38:10.820Z,17.14
2023-05-21T07:40:38.548Z,17.45
2023-05-21T07:43:04.984Z,17.27
2023-05-21T07:45:31.661Z,17.59
2023-05-21T07:47:58.135Z,17.37
2023-05-21T07:50:25.496Z,17.30
2023-05-21T07:52:52.119Z,18.34
2023-05-21T07:55:18.562Z,17.58
2023-05-21T07:57:46.301Z,18.03
2023-05-21T08:00:13.876Z,17.68
2023-05-21T08:02:40.510Z,18.17
2023-05-21T08:05:07.881Z,18.33
2023-05-21T08:07:34.351Z,18.40
2023-05-21T08:10:02.565Z,18.54
2023-05-21T08:12:29.369Z,18.27
2023-05-21T08:14:57.772Z,17.67
2023-05-21T08:17:24.248Z,17.89
2023-05-21T08:19:51.126Z,17.91
2023-05-21T08:22:17.526Z,18.05
2023-05-21T08:24:43.934Z,17.90
2023-05-21T08:27:10.567Z,18.40
2023-05-21T08:29:37.082Z,18.36
2023-05-21T08:32:05.791Z,18.68
2023-05-21T08:34:32.396Z,18.61
2023-05-21T08:36:58.836Z,18.64
2023-05-21T08:39:25.270Z,19.06
2023-05-21T08:41:57.429Z,18.99
2023-05-21T08:44:25.707Z,19.53
2023-05-21T08:46:54.750Z,19.56
2023-05-21T08:49:27.343Z,20.07
2023-05-21T08:51:55.370Z,19.57
2023-05-21T08:54:22.588Z,19.41
2023-05-21T08:56:49.169Z,19.06
2023-05-21T08:59:17.009Z,19.82
2023-05-21T09:01:45.114Z,19.53
2023-05-21T09:04:20.804Z,19.55
2023-05-21T09:06:50.071Z,19.58
2023-05-21T09:09:25.052Z,19.25
2023-05-21T09:11:51.513Z,19.45
2023-05-21T09:14:19.377Z,19.22
2023-05-21T09:16:46.750Z,20.43
2023-05-21T09:19:13.234Z,20.91
2023-05-21T09:21:39.704Z,20.46
2023-05-21T09:24:09.948Z,20.26
2023-05-21T09:26:36.406Z,20.49
2023-05-21T09:29:02.969Z,20.88
2023-05-21T09:31:29.940Z,20.36
2023-05-21T09:33:56.618Z,20.53
2023-05-21T09:36:23.229Z,20.64
2023-05-21T09:38:50.825Z,20.89
2023-05-21T09:41:21.830Z,20.53
2023-05-21T09:43:49.015Z,20.19
2023-05-21T09:46:15.518Z,20.42
2023-05-21T09:48:42.981Z,20.47
2023-05-21T09:51:11.488Z,20.13
2023-05-21T09:53:43.651Z,19.83
2023-05-21T09:56:10.129Z,20.15
2023-05-21T09:58:38.264Z,20.20
2023-05-21T10:01:04.791Z,20.35
2023-05-21T10:03:32.714Z,20.68
2023-05-21T10:06:00.467Z,20.54
2023-05-21T10:08:30.764Z,20.64
2023-05-21T10:10:57.277Z,21.10
2023-05-21T10:13:24.358Z,21.23
2023-05-21T10:15:59.356Z,21.01
2023-05-21T10:18:27.322Z,21.30
2023-05-21T10:20:55.232Z,21.36
2023-05-21T10:23:23.424Z,21.72
2023-05-21T10:25:50.931Z,21.71
2023-05-21T10:28:17.485Z,21.72
2023-05-21T10:30:44.973Z,22.13
2023-05-21T10:33:15.429Z,21.54
2023-05-21T10:35:42.654Z,21.32
2023-05-21T10:38:09.703Z,21.68
2023-05-21T10:40:36.553Z,22.85
2023-05-21T10:43:44.058Z,21.98
2023-05-21T10:46:42.691Z,22.53
2023-05-21T10:49:52.119Z,22.46
2023-05-21T10:52:38.320Z,22.25
2023-05-21T10:55:29.226Z,22.19
2023-05-21T10:58:23.658Z,22.24
2023-05-21T11:00:52.706Z,22.58
2023-05-21T11:03:20.352Z,22.20
2023-05-21T11:05:52.028Z,22.36
2023-05-21T11:08:22.227Z,22.98
2023-05-21T11:10:52.191Z,23.35
2023-05-21T11:13:18.692Z,23.28
2023-05-21T11:16:05.574Z,23.04
2023-05-21T11:18:59.475Z,23.05
2023-05-21T11:21:29.737Z,23.47
2023-05-21T11:24:01.187Z,23.25
2023-05-21T11:26:29.446Z,23.82
2023-05-21T11:29:07.321Z,23.89
2023-05-21T11:31:35.373Z,23.85
2023-05-21T11:34:14.526Z,23.87
2023-05-21T11:36:42.212Z,23.71
2023-05-21T11:39:10.473Z,23.81
2023-05-21T11:41:53.417Z,24.38
2023-05-21T11:44:37.422Z,24.28
2023-05-21T11:47:04.842Z,24.14
2023-05-21T11:49:31.679Z,23.66
2023-05-21T11:51:59.518Z,23.88
2023-05-21T11:54:27.446Z,24.02
2023-05-21T11:56:54.706Z,23.93
2023-05-21T11:59:21.151Z,23.42
2023-05-21T12:01:47.617Z,23.47
2023-05-21T12:04:14.094Z,24.12
2023-05-21T12:06:42.950Z,24.13
2023-05-21T12:09:09.768Z,24.06
2023-05-21T12:11:38.240Z,23.93
2023-05-21T12:14:07.126Z,24.35
2023-05-21T12:16:33.767Z,24.64
2023-05-21T12:19:00.294Z,24.45
2023-05-21T12:21:27.938Z,24.19
2023-05-21T12:23:54.392Z,24.56
2023-05-21T12:26:20.961Z,24.15
2023-05-21T12:28:48.818Z,24.36
2023-05-21T12:31:15.665Z,24.34
2023-05-21T12:33:44.317Z,24.25
2023-05-21T12:36:10.746Z,23.81
2023-05-21T12:38:37.524Z,23.97
2023-05-21T12:41:04.478Z,24.08
2023-05-21T12:43:31.720Z,24.30
2023-05-21T12:45:59.502Z,24.33
2023-05-21T12:48:25.985Z,24.46
2023-05-21T12:50:52.393Z,24.82
2023-05-21T12:53:18.828Z,24.93
2023-05-21T12:55:45.258Z,24.30
2023-05-21T12:58:14.037Z,25.02
2023-05-21T13:00:41.587Z,24.85
2023-05-21T13:03:09.417Z,24.56
2023-05-21T13:05:39.702Z,24.47
2023-05-21T13:08:06.121Z,24.66
2023-05-21T13:10:32.516Z,24.55
2023-05-21T13:12:58.972Z,24.89
2023-05-21T13:15:26.760Z,24.69
2023-05-21T13:17:55.166Z,24.85
2023-05-21T13:20:24.397Z,24.88
2023-05-21T13:22:51.994Z,24.47
2023-05-21T13:25:20.662Z,24.61
2023-05-21T13:27:48.009Z,24.73
2023-05-21T13:30:14.549Z,24.51
2023-05-21T13:32:42.027Z,24.48
2023-05-21T13:35:09.623Z,24.91
2023-05-21T13:37:39.609Z,25.28
2023-05-21T13:40:08.205Z,25.00
2023-05-21T13:42:35.003Z,24.99
2023-05-21T13:45:01.500Z,25.42
2023-05-21T13:47:27.965Z,25.49
2023-05-21T13:49:54.438Z,25.22
2023-05-21T13:52:20.899Z,25.84
2023-05-21T13:54:48.669Z,25.58
2023-05-21T13:57:15.311Z,25.46
2023-05-21T13:59:41.794Z,25.34
2023-05-21T14:02:09.155Z,25.49
2023-05-21T14:04:37.860Z,25.05
2023-05-21T14:07:06.059Z,24.98
2023-05-21T14:09:32.894Z,25.13
2023-05-21T14:12:00.729Z,25.16
2023-05-21T14:14:27.434Z,25.06
2023-05-21T14:16:54.998Z,25.05
2023-05-21T14:19:21.582Z,24.83
2023-05-21T14:21:48.067Z,24.97
2023-05-21T14:24:14.520Z,25.13
2023-05-21T14:26:41.324Z,25.61
2023-05-21T14:29:09.827Z,25.37
2023-05-21T14:31:36.831Z,25.29
2023-05-21T14:34:03.348Z,25.15
2023-05-21T14:36:29.890Z,25.05
2023-05-21T14:38:56.412Z,25.31
2023-05-21T14:41:24.051Z,25.39
2023-05-21T14:43:50.520Z,25.02
2023-05-21T14:46:18.397Z,25.58
2023-05-21T14:48:44.937Z,25.66
2023-05-21T14:51:11.353Z,24.93
2023-05-21T14:53:37.804Z,25.17
2023-05-21T14:56:04.716Z,25.20
2023-05-21T14:58:31.313Z,25.20
2023-05-21T15:00:57.840Z,25.36
2023-05-21T15:03:25.635Z,25.19
2023-05-21T15:05:52.190Z,25.28
2023-05-21T15:08:18.613Z,25.38
2023-05-21T15:10:45.190Z,25.14
2023-05-21T15:13:11.598Z,25.23
2023-05-21T15:15:38.290Z,25.53
2023-05-21T15:18:04.975Z,25.66
2023-05-21T15:20:32.738Z,25.32
2023-05-21T15:23:15.281Z,25.05
2023-05-21T15:25:42.225Z,25.36
2023-05-21T15:28:08.627Z,25.49
2023-05-21T15:30:35.035Z,25.55
2023-05-21T15:33:01.517Z,25.60
2023-05-21T15:35:28.164Z,25.63
2023-05-21T15:37:55.969Z,25.57
2023-05-21T15:40:23.890Z,25.31
2023-05-21T15:42:51.500Z,25.30
2023-05-21T15:45:18.991Z,25.85
2023-05-21T15:47:45.987Z,25.69
2023-05-21T15:50:12.475Z,25.88
2023-05-21T15:52:38.940Z,25.68
2023-05-21T15:55:07.955Z,26.10
2023-05-21T15:57:34.350Z,26.04
2023-05-21T16:00:00.735Z,25.86
2023-05-21T16:02:27.216Z,25.98
2023-05-21T16:04:53.660Z,26.10
2023-05-21T16:07:20.087Z,25.84
2023-05-21T16:09:46.522Z,25.96
2023-05-21T16:12:14.406Z,25.84
2023-05-21T16:14:40.880Z,26.16
2023-05-21T16:17:07.299Z,26.00
2023-05-21T16:19:33.871Z,25.85
2023-05-21T16:22:00.673Z,25.91
2023-05-21T16:24:27.211Z,25.62
2023-05-21T16:26:53.623Z,25.80
2023-05-21T16:29:22.143Z,25.88
2023-05-21T16:31:48.876Z,25.60
2023-05-21T16:34:15.442Z,25.61
2023-05-21T16:36:41.904Z,25.62
2023-05-21T16:39:08.365Z,25.63
2023-05-21T16:41:34.804Z,25.72
2023-05-21T16:44:01.208Z,25.70
2023-05-21T16:46:29.011Z,25.49
2023-05-21T16:48:55.484Z,25.42
2023-05-21T16:51:21.897Z,25.41
2023-05-21T16:53:48.341Z,25.59
2023-05-21T16:56:14.769Z,25.35
2023-05-21T16:58:41.154Z,25.20
2023-05-21T17:01:07.836Z,25.23
2023-05-21T17:03:35.888Z,25.30
2023-05-21T17:06:02.345Z,25.44
2023-05-21T17:08:29.045Z,25.45
2023-05-21T17:10:55.625Z,25.20
2023-05-21T17:13:23.230Z,25.36
2023-05-21T17:15:50.581Z,25.15
2023-05-21T17:18:17.144Z,25.10
2023-05-21T17:20:44.881Z,25.07
2023-05-21T17:23:11.534Z,25.18
2023-05-21T17:25:38.298Z,25.34
2023-05-21T17:28:05.277Z,25.39
2023-05-21T17:30:31.720Z,25.54
2023-05-21T17:32:58.268Z,25.23
2023-05-21T17:35:24.832Z,25.35
2023-05-21T17:37:52.582Z,25.42
2023-05-21T17:40:19.075Z,25.23
2023-05-21T17:42:45.604Z,25.14
2023-05-21T17:45:15.033Z,25.20
2023-05-21T17:47:41.523Z,25.21
2023-05-21T17:50:09.191Z,25.07
2023-05-21T17:52:35.743Z,25.20
2023-05-21T17:55:03.904Z,25.12
2023-05-21T17:57:30.369Z,25.20
2023-05-21T17:59:56.787Z,25.01
2023-05-21T18:02:23.322Z,25.21
2023-05-21T18:04:49.835Z,25.26
2023-05-21T18:07:16.359Z,25.36
2023-05-21T18:09:42.779Z,25.18
2023-05-21T18:12:10.643Z,25.30
2023-05-21T18:14:37.303Z,24.97
2023-05-21T18:17:03.961Z,25.11
2023-05-21T18:19:31.278Z,24.94
2023-05-21T18:21:57.850Z,24.88
2023-05-21T18:24:24.277Z,24.95
2023-05-21T18:26:50.713Z,24.90
2023-05-21T18:29:18.694Z,25.24
2023-05-21T18:31:45.196Z,24.97
2023-05-21T18:34:11.696Z,24.83
2023-05-21T18:36:38.152Z,24.80
2023-05-21T18:39:05.430Z,24.90
2023-05-21T18:41:31.872Z,24.93
2023-05-21T18:43:58.311Z,24.64
2023-05-21T18:46:26.070Z,24.77
2023-05-21T18:48:52.660Z,25.13
2023-05-21T18:51:19.103Z,24.81
2023-05-21T18:53:45.513Z,24.62
2023-05-21T18:56:11.945Z,24.64
2023-05-21T18:58:38.415Z,24.34
2023-05-21T19:01:06.004Z,24.26
2023-05-21T19:03:33.785Z,24.25
2023-05-21T19:06:00.252Z,24.29
2023-05-21T19:08:26.718Z,24.36
2023-05-21T19:10:53.172Z,24.17
2023-05-21T19:13:19.776Z,23.83
2023-05-21T19:15:46.215Z,23.76
2023-05-21T19:18:12.708Z,23.99
2023-05-21T19:20:41.022Z,23.87
2023-05-21T19:23:07.698Z,23.71
2023-05-21T19:25:34.192Z,23.43
2023-05-21T19:28:02.649Z,23.57
2023-05-21T19:30:29.227Z,23.41
2023-05-21T19:32:55.635Z,23.38
2023-05-21T19:35:22.303Z,23.49
2023-05-21T19:37:50.177Z,23.40
2023-05-21T19:40:16.626Z,23.17
2023-05-21T19:42:43.065Z,23.14
2023-05-21T19:45:10.801Z,23.38
2023-05-21T19:47:37.323Z,23.36
2023-05-21T19:50:07.392Z,23.11
2023-05-21T19:52:34.061Z,23.34
2023-05-21T19:55:02.229Z,23.30
2023-05-21T19:57:28.833Z,23.31
2023-05-21T19:59:55.605Z,23.20
2023-05-21T20:02:22.705Z,23.17
2023-05-21T20:04:49.596Z,23.17
2023-05-21T20:07:16.208Z,23.21
2023-05-21T20:09:42.854Z,23.30
2023-05-21T20:12:10.957Z,23.08
2023-05-21T20:14:37.600Z,23.18
2023-05-21T20:17:04.171Z,23.47
2023-05-21T20:19:31.206Z,23.21
2023-05-21T20:21:57.979Z,23.29
2023-05-21T20:24:24.444Z,23.22
2023-05-21T20:26:51.076Z,23.15
2023-05-21T20:29:19.123Z,23.17
2023-05-21T20:31:45.948Z,23.53
2023-05-21T20:34:12.602Z,23.35
2023-05-21T20:36:39.112Z,23.25
2023-05-21T20:39:06.002Z,23.90
2023-05-21T20:41:32.692Z,23.41
2023-05-21T20:43:59.128Z,23.82
2023-05-21T20:46:26.882Z,24.05
2023-05-21T20:48:53.395Z,23.67
2023-05-21T20:51:19.800Z,23.17
2023-05-21T20:53:46.199Z,23.14
2023-05-21T20:56:12.634Z,22.48
2023-05-21T20:58:39.032Z,22.51
2023-05-21T21:01:05.454Z,22.37
2023-05-21T21:03:33.318Z,23.18
2023-05-21T21:06:00.166Z,22.54
2023-05-21T21:08:26.750Z,22.35
2023-05-21T21:10:53.203Z,23.36
2023-05-21T21:13:19.589Z,22.61
2023-05-21T21:15:46.003Z,22.91
2023-05-21T21:18:12.746Z,22.94
2023-05-21T21:20:40.756Z,22.35
2023-05-21T21:23:07.493Z,22.22
2023-05-21T21:25:34.178Z,22.01
2023-05-21T21:28:00.603Z,22.01
2023-05-21T21:30:27.043Z,22.20
2023-05-21T21:32:53.528Z,22.05
2023-05-21T21:35:19.945Z,21.93
2023-05-21T21:37:47.677Z,21.99
2023-05-21T21:40:14.259Z,21.97
2023-05-21T21:42:42.120Z,21.84
2023-05-21T21:45:09.826Z,21.75
2023-05-21T21:47:36.346Z,21.78
2023-05-21T21:50:02.788Z,22.06
2023-05-21T21:52:29.294Z,21.92
2023-05-21T21:54:57.049Z,21.63
2023-05-21T21:57:23.711Z,21.55
2023-05-21T21:59:50.238Z,21.68
2023-05-21T22:02:16.653Z,21.62
2023-05-21T22:04:43.203Z,21.35
2023-05-21T22:07:09.636Z,21.55
2023-05-21T22:09:36.118Z,21.36
2023-05-21T22:12:04.582Z,21.28
2023-05-21T22:14:30.999Z,21.17
2023-05-21T22:16:57.441Z,21.10
2023-05-21T22:19:23.874Z,21.13
2023-05-21T22:21:50.608Z,21.17
2023-05-21T22:24:30.715Z,21.09
2023-05-21T22:26:58.214Z,21.20
2023-05-21T22:29:26.110Z,21.00
2023-05-21T22:31:52.567Z,21.16
2023-05-21T22:34:19.050Z,20.86
2023-05-21T22:36:46.326Z,20.82
2023-05-21T22:39:12.714Z,21.01
2023-05-21T22:41:39.161Z,20.90
2023-05-21T22:44:05.627Z,20.89
2023-05-21T22:46:33.545Z,21.02
2023-05-21T22:48:59.980Z,21.04
2023-05-21T22:51:26.397Z,21.03
2023-05-21T22:53:52.800Z,20.81
2023-05-21T22:56:19.214Z,20.72
2023-05-21T22:58:45.664Z,20.74
2023-05-21T23:01:12.234Z,20.85
2023-05-21T23:03:39.988Z,20.81
2023-05-21T23:06:06.752Z,20.61
2023-05-21T23:08:33.170Z,20.68
2023-05-21T23:10:59.644Z,20.71
2023-05-21T23:13:26.096Z,20.55
2023-05-21T23:15:52.530Z,20.65
2023-05-21T23:18:19.272Z,20.91
2023-05-21T23:20:47.041Z,20.66
2023-05-21T23:23:13.560Z,20.69
2023-05-21T23:25:39.969Z,20.69
2023-05-21T23:28:06.564Z,20.53
2023-05-21T23:30:32.980Z,20.59
2023-05-21T23:32:59.518Z,20.36
2023-05-21T23:35:26.049Z,20.74
2023-05-21T23:37:53.887Z,20.79
2023-05-21T23:40:20.357Z,20.52
2023-05-21T23:42:47.069Z,20.52
2023-05-21T23:45:13.445Z,20.58
2023-05-21T23:47:50.040Z,20.48
2023-05-21T23:50:16.507Z,20.47
2023-05-21T23:52:42.984Z,20.80
2023-05-21T23:55:11.063Z,20.52
2023-05-21T23:57:37.583Z,20.46
